createdAt,value
2023-03-26T00:00:53.044Z,98.84
2023-03-26T00:01:53.073Z,99.15
2023-03-26T00:02:53.156Z,99.15
2023-03-26T00:03:53.047Z,99.25
2023-03-26T00:04:53.021Z,99.46
2023-03-26T00:05:53.164Z,99.35
2023-03-26T00:06:53.023Z,99.46
2023-03-26T00:07:53.023Z,99.66
2023-03-26T00:08:52.998Z,99.46
2023-03-26T00:09:53.036Z,99.35
2023-03-26T00:10:53.039Z,99.35
2023-03-26T00:11:53.007Z,99.35
2023-03-26T00:12:52.988Z,99.35
2023-03-26T00:13:53.014Z,99.25
2023-03-26T00:14:52.988Z,99.10
2023-03-26T00:15:53.346Z,98.74
2023-03-26T00:16:53.042Z,98.94
2023-03-26T00:17:53.010Z,98.79
2023-03-26T00:18:52.975Z,99.25
2023-03-26T00:19:52.942Z,99.21
2023-03-26T00:20:52.932Z,98.74
2023-03-26T00:21:52.955Z,98.90
2023-03-26T00:22:52.919Z,98.38
2023-03-26T00:23:52.979Z,98.28
2023-03-26T00:24:52.900Z,98.49
2023-03-26T00:25:53.103Z,99.00
2023-03-26T00:26:52.883Z,98.69
2023-03-26T00:27:52.887Z,98.58
2023-03-26T00:28:52.876Z,99.00
2023-03-26T00:29:52.894Z,98.58
2023-03-26T00:30:52.898Z,98.18
2023-03-26T00:31:52.855Z,98.38
2023-03-26T00:32:53.399Z,98.28
2023-03-26T00:33:52.858Z,98.28
2023-03-26T00:34:52.880Z,98.28
2023-03-26T00:35:53.050Z,98.33
2023-03-26T00:36:52.841Z,98.58
2023-03-26T00:37:52.833Z,98.33
2023-03-26T00:38:52.796Z,98.33
2023-03-26T00:39:52.875Z,98.07
2023-03-26T00:40:53.808Z,97.72
2023-03-26T00:41:52.815Z,97.72
2023-03-26T00:42:52.770Z,98.33
2023-03-26T00:43:52.796Z,98.33
2023-03-26T00:44:52.797Z,98.44
2023-03-26T00:45:53.191Z,97.72
2023-03-26T00:46:52.791Z,98.54
2023-03-26T00:47:52.801Z,97.20
2023-03-26T00:48:52.737Z,97.41
2023-03-26T00:49:52.746Z,97.41
2023-03-26T00:50:52.720Z,97.61
2023-03-26T00:51:52.743Z,97.82
2023-03-26T00:52:52.733Z,97.09
2023-03-26T00:53:52.738Z,96.79
2023-03-26T00:54:52.706Z,96.99
2023-03-26T00:55:52.841Z,96.89
2023-03-26T00:56:52.746Z,96.79
2023-03-26T00:57:52.698Z,96.99
2023-03-26T00:58:52.679Z,96.53
2023-03-26T00:59:52.705Z,97.05
2023-03-26T01:00:52.670Z,97.36
2023-03-26T01:01:52.717Z,96.79
2023-03-26T01:02:52.729Z,96.64
2023-03-26T01:04:06.734Z,97.20
2023-03-26T01:04:53.655Z,96.95
2023-03-26T01:05:53.027Z,96.74
2023-03-26T01:06:52.649Z,96.64
2023-03-26T01:07:52.632Z,96.44
2023-03-26T01:08:52.624Z,96.84
2023-03-26T01:09:52.662Z,96.74
2023-03-26T01:10:52.635Z,96.44
2023-03-26T01:11:52.612Z,96.23
2023-03-26T01:12:52.594Z,96.12
2023-03-26T01:13:52.615Z,96.23
2023-03-26T01:14:52.581Z,95.98
2023-03-26T01:15:52.890Z,96.12
2023-03-26T01:16:52.708Z,96.02
2023-03-26T01:17:52.633Z,96.44
2023-03-26T01:18:52.571Z,96.12
2023-03-26T01:19:52.610Z,96.44
2023-03-26T01:20:52.539Z,95.77
2023-03-26T01:21:52.590Z,96.53
2023-03-26T01:22:52.563Z,96.53
2023-03-26T01:23:52.581Z,96.33
2023-03-26T01:24:52.572Z,96.64
2023-03-26T01:25:52.822Z,96.74
2023-03-26T01:26:52.512Z,97.16
2023-03-26T01:27:52.539Z,95.30
2023-03-26T01:28:52.485Z,95.61
2023-03-26T01:29:52.587Z,95.20
2023-03-26T01:30:52.466Z,95.20
2023-03-26T01:31:52.492Z,94.57
2023-03-26T01:32:52.523Z,95.09
2023-03-26T01:33:52.492Z,95.56
2023-03-26T01:34:52.468Z,93.81
2023-03-26T01:35:52.629Z,94.95
2023-03-26T01:36:52.436Z,94.23
2023-03-26T01:37:52.542Z,95.05
2023-03-26T01:38:52.422Z,95.09
2023-03-26T01:39:52.442Z,94.95
2023-03-26T01:40:52.453Z,94.64
2023-03-26T01:41:52.416Z,94.53
2023-03-26T01:42:52.405Z,93.30
2023-03-26T01:43:52.416Z,94.12
2023-03-26T01:44:52.378Z,93.19
2023-03-26T01:45:52.697Z,93.81
2023-03-26T01:46:52.546Z,93.30
2023-03-26T01:47:52.506Z,92.78
2023-03-26T01:48:52.365Z,93.19
2023-03-26T01:49:52.373Z,92.88
2023-03-26T01:50:52.352Z,92.43
2023-03-26T01:51:52.347Z,92.33
2023-03-26T01:52:52.324Z,92.37
2023-03-26T01:53:52.340Z,93.09
2023-03-26T01:54:52.322Z,92.78
2023-03-26T01:55:52.491Z,92.06
2023-03-26T01:56:52.365Z,91.34
2023-03-26T01:57:52.323Z,90.82
2023-03-26T01:58:52.294Z,91.71
2023-03-26T01:59:52.304Z,92.27
2023-03-26T02:00:52.271Z,92.99
2023-03-26T02:01:52.401Z,92.47
2023-03-26T02:02:52.350Z,92.88
2023-03-26T02:03:52.288Z,93.30
2023-03-26T02:04:52.248Z,93.81
2023-03-26T02:05:52.642Z,93.96
2023-03-26T02:06:52.258Z,93.65
2023-03-26T02:07:52.277Z,94.99
2023-03-26T02:08:52.224Z,94.47
2023-03-26T02:09:52.255Z,95.71
2023-03-26T02:10:52.197Z,95.30
2023-03-26T02:11:52.222Z,94.99
2023-03-26T02:12:52.233Z,94.68
2023-03-26T02:13:52.209Z,94.68
2023-03-26T02:14:52.178Z,94.37
2023-03-26T02:15:52.398Z,94.99
2023-03-26T02:16:52.169Z,95.71
2023-03-26T02:17:52.333Z,95.92
2023-03-26T02:18:52.170Z,94.99
2023-03-26T02:19:52.153Z,95.40
2023-03-26T02:20:52.149Z,95.09
2023-03-26T02:21:52.172Z,96.23
2023-03-26T02:22:52.161Z,95.71
2023-03-26T02:23:52.138Z,95.92
2023-03-26T02:24:52.133Z,96.12
2023-03-26T02:25:52.431Z,96.37
2023-03-26T02:26:52.100Z,96.99
2023-03-26T02:27:52.123Z,97.82
2023-03-26T02:28:52.090Z,98.13
2023-03-26T02:29:52.111Z,98.44
2023-03-26T02:30:52.075Z,98.54
2023-03-26T02:31:52.103Z,98.65
2023-03-26T02:32:52.115Z,98.44
2023-03-26T02:33:52.058Z,98.54
2023-03-26T02:34:52.067Z,98.44
2023-03-26T02:35:52.276Z,98.85
2023-03-26T02:36:52.116Z,99.16
2023-03-26T02:37:52.056Z,99.26
2023-03-26T02:38:52.020Z,99.37
2023-03-26T02:39:52.064Z,99.72
2023-03-26T02:40:51.999Z,99.41
2023-03-26T02:41:52.051Z,99.52
2023-03-26T02:42:51.987Z,99.10
2023-03-26T02:43:52.003Z,99.52
2023-03-26T02:44:51.990Z,99.62
2023-03-26T02:45:52.061Z,99.72
2023-03-26T02:46:51.970Z,99.77
2023-03-26T02:47:52.008Z,99.82
2023-03-26T02:48:52.021Z,99.99
2023-03-26T02:49:51.974Z,99.99
2023-03-26T02:50:51.933Z,99.99
2023-03-26T02:51:51.949Z,99.99
2023-03-26T02:52:51.921Z,99.99
2023-03-26T02:53:51.950Z,99.99
2023-03-26T02:54:51.958Z,99.99
2023-03-26T02:55:52.182Z,99.99
2023-03-26T02:56:51.949Z,99.99
2023-03-26T02:57:51.909Z,99.99
2023-03-26T02:58:51.903Z,99.99
2023-03-26T02:59:51.915Z,99.99
2023-03-26T03:00:51.922Z,99.99
2023-03-26T03:01:51.886Z,99.99
2023-03-26T03:02:51.983Z,99.99
2023-03-26T03:03:51.905Z,99.99
2023-03-26T03:04:51.887Z,99.99
2023-03-26T03:05:52.053Z,99.99
2023-03-26T03:06:51.839Z,99.99
2023-03-26T03:07:51.852Z,99.99
2023-03-26T03:08:51.853Z,99.99
2023-03-26T03:09:51.921Z,99.99
2023-03-26T03:10:51.820Z,99.99
2023-03-26T03:11:51.839Z,99.99
2023-03-26T03:12:51.815Z,99.99
2023-03-26T03:13:51.827Z,99.99
2023-03-26T03:14:51.806Z,99.99
2023-03-26T03:15:51.832Z,99.87
2023-03-26T03:16:51.804Z,99.99
2023-03-26T03:17:51.853Z,99.99
2023-03-26T03:18:51.791Z,99.87
2023-03-26T03:19:51.768Z,99.99
2023-03-26T03:20:51.744Z,99.99
2023-03-26T03:21:51.751Z,99.99
2023-03-26T03:22:51.732Z,99.99
2023-03-26T03:23:51.747Z,99.99
2023-03-26T03:24:51.740Z,99.99
2023-03-26T03:25:51.773Z,99.99
2023-03-26T03:26:51.719Z,99.99
2023-03-26T03:27:51.731Z,99.99
2023-03-26T03:28:51.693Z,99.99
2023-03-26T03:29:51.728Z,99.99
2023-03-26T03:30:51.726Z,99.99
2023-03-26T03:31:51.690Z,99.99
2023-03-26T03:32:51.682Z,99.99
2023-03-26T03:33:51.676Z,99.99
2023-03-26T03:34:51.644Z,99.99
2023-03-26T03:35:51.717Z,99.99
2023-03-26T03:36:51.665Z,99.99
2023-03-26T03:37:51.667Z,99.99
2023-03-26T03:38:51.632Z,99.99
2023-03-26T03:39:51.642Z,99.99
2023-03-26T03:40:51.617Z,99.99
2023-03-26T03:41:51.644Z,99.99
2023-03-26T03:42:51.640Z,99.99
2023-03-26T03:43:51.607Z,99.99
2023-03-26T03:44:51.647Z,99.99
2023-03-26T03:45:51.631Z,99.99
2023-03-26T03:46:51.603Z,99.99
2023-03-26T03:47:51.583Z,99.99
2023-03-26T03:48:51.574Z,99.99
2023-03-26T03:49:51.557Z,99.99
2023-03-26T03:50:51.534Z,99.99
2023-03-26T03:51:51.554Z,99.99
2023-03-26T03:52:51.546Z,99.99
2023-03-26T03:53:51.538Z,99.99
2023-03-26T03:54:51.536Z,99.99
2023-03-26T03:55:51.578Z,99.99
2023-03-26T03:56:51.522Z,99.99
2023-03-26T03:57:51.544Z,99.99
2023-03-26T03:58:51.507Z,99.99
2023-03-26T03:59:51.568Z,99.99
2023-03-26T04:00:51.501Z,99.99
2023-03-26T04:01:51.489Z,99.99
2023-03-26T04:02:51.521Z,99.99
2023-03-26T04:03:51.511Z,99.99
2023-03-26T04:04:51.455Z,99.99
2023-03-26T04:05:51.493Z,99.99
2023-03-26T04:06:51.439Z,99.99
2023-03-26T04:07:51.459Z,99.99
2023-03-26T04:08:51.484Z,99.99
2023-03-26T04:09:51.432Z,99.99
2023-03-26T04:10:51.484Z,99.99
2023-03-26T04:11:51.412Z,99.99
2023-03-26T04:12:51.385Z,99.99
2023-03-26T04:13:51.410Z,99.99
2023-03-26T04:14:51.404Z,99.99
2023-03-26T04:15:51.427Z,99.99
2023-03-26T04:16:51.387Z,99.99
2023-03-26T04:17:51.418Z,99.99
2023-03-26T04:18:51.354Z,99.99
2023-03-26T04:19:51.363Z,99.99
2023-03-26T04:20:51.394Z,99.99
2023-03-26T04:21:51.339Z,99.99
2023-03-26T04:22:51.316Z,99.99
2023-03-26T04:23:51.313Z,99.99
2023-03-26T04:24:51.312Z,99.99
2023-03-26T04:25:51.352Z,99.99
2023-03-26T04:26:51.273Z,99.99
2023-03-26T04:27:51.292Z,99.99
2023-03-26T04:28:51.262Z,99.99
2023-03-26T04:29:51.293Z,99.99
2023-03-26T04:30:51.275Z,99.99
2023-03-26T04:31:51.311Z,99.99
2023-03-26T04:32:51.294Z,99.99
2023-03-26T04:33:51.262Z,99.99
2023-03-26T04:34:51.288Z,99.99
2023-03-26T04:35:51.284Z,99.99
2023-03-26T04:36:51.222Z,99.99
2023-03-26T04:37:51.240Z,99.99
2023-03-26T04:38:51.218Z,99.99
2023-03-26T04:39:51.213Z,99.99
2023-03-26T04:40:51.181Z,99.99
2023-03-26T04:41:51.200Z,99.99
2023-03-26T04:42:51.171Z,99.99
2023-03-26T04:43:51.209Z,99.99
2023-03-26T04:44:51.194Z,99.99
2023-03-26T04:45:51.167Z,99.99
2023-03-26T04:46:51.200Z,99.99
2023-03-26T04:47:51.216Z,99.99
2023-03-26T04:48:51.148Z,99.99
2023-03-26T04:49:51.187Z,99.99
2023-03-26T04:50:51.148Z,99.99
2023-03-26T04:51:51.140Z,99.99
2023-03-26T04:52:51.123Z,99.99
2023-03-26T04:53:51.143Z,99.99
2023-03-26T04:54:51.116Z,99.99
2023-03-26T04:55:51.133Z,99.99
2023-03-26T04:56:51.142Z,99.99
2023-03-26T04:57:51.149Z,99.99
2023-03-26T04:58:51.084Z,99.99
2023-03-26T04:59:51.090Z,99.99
2023-03-26T05:00:51.096Z,99.99
2023-03-26T05:01:51.075Z,99.99
2023-03-26T05:02:51.151Z,99.99
2023-03-26T05:03:51.098Z,99.99
2023-03-26T05:04:51.051Z,99.99
2023-03-26T05:05:51.110Z,99.99
2023-03-26T05:06:51.047Z,99.99
2023-03-26T05:07:51.062Z,99.99
2023-03-26T05:08:51.081Z,99.99
2023-03-26T05:09:51.139Z,99.99
2023-03-26T05:10:51.040Z,99.99
2023-03-26T05:11:51.060Z,99.99
2023-03-26T05:12:51.001Z,99.99
2023-03-26T05:13:51.016Z,99.99
2023-03-26T05:14:51.003Z,99.99
2023-03-26T05:15:51.004Z,99.99
2023-03-26T05:16:51.075Z,99.99
2023-03-26T05:17:51.011Z,99.99
2023-03-26T05:18:50.985Z,99.99
2023-03-26T05:19:50.972Z,99.99
2023-03-26T05:20:50.967Z,99.99
2023-03-26T05:21:50.966Z,99.99
2023-03-26T05:22:50.968Z,99.99
2023-03-26T05:23:50.982Z,99.99
2023-03-26T05:24:50.941Z,99.99
2023-03-26T05:25:50.984Z,99.99
2023-03-26T05:26:50.916Z,99.99
2023-03-26T05:27:50.948Z,99.99
2023-03-26T05:28:52.576Z,99.99
2023-03-26T05:29:50.912Z,99.99
2023-03-26T05:30:50.908Z,99.99
2023-03-26T05:31:50.902Z,99.99
2023-03-26T05:32:50.950Z,99.99
2023-03-26T05:33:50.943Z,99.99
2023-03-26T05:34:50.887Z,99.99
2023-03-26T05:35:50.914Z,99.54
2023-03-26T05:36:50.858Z,99.33
2023-03-26T05:37:50.921Z,98.56
2023-03-26T05:38:52.613Z,97.74
2023-03-26T05:39:50.862Z,97.59
2023-03-26T05:40:50.837Z,96.76
2023-03-26T05:41:50.856Z,96.20
2023-03-26T05:42:50.813Z,95.07
2023-03-26T05:43:50.864Z,94.04
2023-03-26T05:44:50.835Z,93.43
2023-03-26T05:45:50.828Z,93.18
2023-03-26T05:46:50.803Z,93.12
2023-03-26T05:47:50.879Z,93.22
2023-03-26T05:48:50.793Z,92.91
2023-03-26T05:49:50.807Z,93.53
2023-03-26T05:50:50.793Z,93.88
2023-03-26T05:51:50.778Z,94.29
2023-03-26T05:52:50.765Z,94.50
2023-03-26T05:53:50.776Z,93.94
2023-03-26T05:54:50.765Z,92.86
2023-03-26T05:55:50.794Z,91.17
2023-03-26T05:56:50.789Z,91.34
2023-03-26T05:57:50.741Z,89.65
2023-03-26T05:58:51.921Z,88.33
2023-03-26T05:59:50.745Z,86.50
2023-03-26T06:00:50.700Z,85.43
2023-03-26T06:01:50.729Z,85.22
2023-03-26T06:02:50.737Z,85.12
2023-03-26T06:03:51.809Z,84.12
2023-03-26T06:04:50.746Z,83.77
2023-03-26T06:05:50.683Z,82.77
2023-03-26T06:06:50.713Z,80.44
2023-03-26T06:07:50.680Z,79.52
2023-03-26T06:09:01.813Z,79.35
2023-03-26T06:09:51.672Z,79.82
2023-03-26T06:10:50.630Z,80.07
2023-03-26T06:11:50.657Z,79.38
2023-03-26T06:12:50.649Z,80.21
2023-03-26T06:13:50.627Z,81.76
2023-03-26T06:14:50.607Z,83.06
2023-03-26T06:15:50.679Z,85.44
2023-03-26T06:16:50.631Z,89.19
2023-03-26T06:17:50.611Z,89.58
2023-03-26T06:18:50.586Z,90.86
2023-03-26T06:19:51.588Z,90.91
2023-03-26T06:20:50.566Z,93.28
2023-03-26T06:21:50.596Z,93.22
2023-03-26T06:22:50.564Z,93.12
2023-03-26T06:23:50.561Z,93.32
2023-03-26T06:24:50.544Z,94.97
2023-03-26T06:25:50.527Z,94.67
2023-03-26T06:26:50.512Z,94.10
2023-03-26T06:27:50.535Z,92.93
2023-03-26T06:28:50.522Z,92.61
2023-03-26T06:29:50.522Z,92.51
2023-03-26T06:30:50.591Z,92.10
2023-03-26T06:31:50.482Z,91.24
2023-03-26T06:32:50.572Z,90.37
2023-03-26T06:33:50.495Z,91.09
2023-03-26T06:34:50.485Z,90.94
2023-03-26T06:35:50.589Z,89.40
2023-03-26T06:36:50.464Z,89.29
2023-03-26T06:37:50.453Z,88.72
2023-03-26T06:38:50.442Z,90.78
2023-03-26T06:39:50.495Z,90.16
2023-03-26T06:40:50.480Z,91.09
2023-03-26T06:41:50.421Z,91.50
2023-03-26T06:43:08.486Z,91.40
2023-03-26T06:43:51.436Z,91.54
2023-03-26T06:44:50.428Z,91.85
2023-03-26T06:45:50.407Z,92.06
2023-03-26T06:46:50.461Z,92.02
2023-03-26T06:47:50.414Z,92.02
2023-03-26T06:48:50.357Z,92.53
2023-03-26T06:49:50.385Z,92.53
2023-03-26T06:50:50.377Z,91.97
2023-03-26T06:51:50.382Z,91.66
2023-03-26T06:52:50.355Z,91.25
2023-03-26T06:53:50.367Z,91.66
2023-03-26T06:54:50.339Z,91.15
2023-03-26T06:55:50.384Z,91.56
2023-03-26T06:56:50.364Z,91.91
2023-03-26T06:57:50.316Z,92.12
2023-03-26T06:58:50.316Z,93.25
2023-03-26T06:59:50.302Z,92.47
2023-03-26T07:00:50.321Z,93.09
2023-03-26T07:01:50.312Z,93.30
2023-03-26T07:02:50.306Z,94.23
2023-03-26T07:03:50.291Z,93.60
2023-03-26T07:04:50.264Z,93.71
2023-03-26T07:05:50.269Z,94.49
2023-03-26T07:06:50.242Z,93.56
2023-03-26T07:07:50.251Z,91.60
2023-03-26T07:08:50.267Z,91.97
2023-03-26T07:09:50.264Z,91.81
2023-03-26T07:10:50.221Z,91.97
2023-03-26T07:11:50.229Z,91.09
2023-03-26T07:12:50.199Z,91.15
2023-03-26T07:13:50.242Z,90.01
2023-03-26T07:14:50.586Z,90.37
2023-03-26T07:15:50.201Z,91.87
2023-03-26T07:16:50.193Z,91.15
2023-03-26T07:17:50.232Z,91.60
2023-03-26T07:18:50.162Z,91.40
2023-03-26T07:19:50.392Z,91.91
2023-03-26T07:20:50.207Z,91.46
2023-03-26T07:21:50.165Z,91.36
2023-03-26T07:22:50.159Z,90.12
2023-03-26T07:23:50.186Z,91.11
2023-03-26T07:24:50.123Z,90.28
2023-03-26T07:25:50.137Z,90.28
2023-03-26T07:26:50.146Z,91.42
2023-03-26T07:27:50.151Z,91.21
2023-03-26T07:29:03.811Z,89.83
2023-03-26T07:29:51.127Z,90.90
2023-03-26T07:30:50.110Z,90.96
2023-03-26T07:31:50.138Z,90.49
2023-03-26T07:32:50.125Z,90.64
2023-03-26T07:33:50.104Z,92.08
2023-03-26T07:34:50.053Z,92.18
2023-03-26T07:35:50.092Z,92.29
2023-03-26T07:36:50.062Z,92.59
2023-03-26T07:37:50.059Z,92.65
2023-03-26T07:38:50.034Z,92.86
2023-03-26T07:39:50.085Z,92.34
2023-03-26T07:40:50.043Z,92.96
2023-03-26T07:41:50.070Z,93.02
2023-03-26T07:42:49.994Z,91.31
2023-03-26T07:43:50.023Z,92.24
2023-03-26T07:44:49.989Z,92.14
2023-03-26T07:45:50.050Z,92.96
2023-03-26T07:46:50.034Z,93.27
2023-03-26T07:47:50.048Z,92.96
2023-03-26T07:48:49.990Z,93.06
2023-03-26T07:49:49.993Z,92.65
2023-03-26T07:50:49.942Z,93.16
2023-03-26T07:51:49.948Z,93.68
2023-03-26T07:52:49.934Z,94.40
2023-03-26T07:53:49.959Z,93.88
2023-03-26T07:54:49.941Z,93.31
2023-03-26T07:55:49.931Z,93.79
2023-03-26T07:56:50.008Z,94.40
2023-03-26T07:57:49.910Z,93.99
2023-03-26T07:58:49.885Z,93.52
2023-03-26T07:59:49.899Z,94.85
2023-03-26T08:00:49.906Z,95.06
2023-03-26T08:01:49.904Z,95.06
2023-03-26T08:02:49.928Z,95.37
2023-03-26T08:03:49.941Z,96.61
2023-03-26T08:04:49.925Z,95.37
2023-03-26T08:05:49.856Z,96.20
2023-03-26T08:06:49.864Z,95.93
2023-03-26T08:07:49.849Z,96.50
2023-03-26T08:08:49.845Z,95.48
2023-03-26T08:09:49.844Z,96.09
2023-03-26T08:10:49.850Z,94.96
2023-03-26T08:11:49.839Z,95.17
2023-03-26T08:12:49.818Z,95.78
2023-03-26T08:13:49.812Z,96.15
2023-03-26T08:14:49.782Z,96.05
2023-03-26T08:15:49.932Z,95.43
2023-03-26T08:16:49.776Z,94.81
2023-03-26T08:17:49.802Z,95.74
2023-03-26T08:18:49.758Z,95.39
2023-03-26T08:19:49.780Z,95.59
2023-03-26T08:20:49.737Z,95.55
2023-03-26T08:21:49.783Z,95.86
2023-03-26T08:22:49.744Z,95.96
2023-03-26T08:23:51.024Z,95.86
2023-03-26T08:24:49.725Z,94.26
2023-03-26T08:25:49.733Z,93.95
2023-03-26T08:26:49.737Z,94.73
2023-03-26T08:27:49.716Z,94.56
2023-03-26T08:28:49.720Z,94.15
2023-03-26T08:29:49.696Z,94.98
2023-03-26T08:30:49.726Z,95.24
2023-03-26T08:31:49.708Z,92.57
2023-03-26T08:32:49.709Z,93.76
2023-03-26T08:33:49.670Z,93.24
2023-03-26T08:34:49.692Z,92.25
2023-03-26T08:35:49.721Z,94.42
2023-03-26T08:36:49.625Z,94.17
2023-03-26T08:37:49.678Z,91.70
2023-03-26T08:38:49.662Z,92.83
2023-03-26T08:39:49.694Z,92.21
2023-03-26T08:40:49.625Z,92.57
2023-03-26T08:41:49.671Z,93.12
2023-03-26T08:42:49.605Z,92.57
2023-03-26T08:43:49.601Z,94.21
2023-03-26T08:44:49.641Z,94.31
2023-03-26T08:45:49.589Z,93.59
2023-03-26T08:46:49.593Z,93.04
2023-03-26T08:47:49.609Z,93.70
2023-03-26T08:48:49.589Z,94.31
2023-03-26T08:49:49.573Z,92.97
2023-03-26T08:50:49.586Z,93.74
2023-03-26T08:51:49.547Z,94.36
2023-03-26T08:52:49.611Z,94.21
2023-03-26T08:53:49.532Z,94.93
2023-03-26T08:54:49.516Z,94.01
2023-03-26T08:55:49.543Z,94.52
2023-03-26T08:56:49.580Z,95.55
2023-03-26T08:57:49.536Z,94.46
2023-03-26T08:58:49.507Z,93.74
2023-03-26T08:59:49.481Z,94.46
2023-03-26T09:00:49.462Z,94.56
2023-03-26T09:01:49.514Z,94.31
2023-03-26T09:02:49.476Z,95.80
2023-03-26T09:03:49.518Z,96.47
2023-03-26T09:04:49.456Z,96.02
2023-03-26T09:05:49.434Z,94.52
2023-03-26T09:06:49.502Z,95.14
2023-03-26T09:07:49.433Z,94.42
2023-03-26T09:08:54.250Z,95.03
2023-03-26T09:09:50.494Z,94.21
2023-03-26T09:10:49.386Z,95.03
2023-03-26T09:11:49.428Z,94.21
2023-03-26T09:12:49.388Z,93.80
2023-03-26T09:13:49.408Z,94.21
2023-03-26T09:14:49.383Z,94.52
2023-03-26T09:15:49.426Z,94.15
2023-03-26T09:16:49.373Z,95.03
2023-03-26T09:17:49.494Z,95.86
2023-03-26T09:18:49.334Z,94.52
2023-03-26T09:19:49.389Z,95.03
2023-03-26T09:20:49.331Z,96.17
2023-03-26T09:21:49.358Z,95.34
2023-03-26T09:22:49.314Z,95.34
2023-03-26T09:23:49.340Z,95.28
2023-03-26T09:24:49.309Z,95.70
2023-03-26T09:25:49.323Z,95.39
2023-03-26T09:26:49.280Z,96.47
2023-03-26T09:27:49.288Z,95.71
2023-03-26T09:28:49.270Z,95.36
2023-03-26T09:29:49.327Z,94.17
2023-03-26T09:30:49.279Z,94.64
2023-03-26T09:31:49.337Z,94.07
2023-03-26T09:32:49.293Z,95.50
2023-03-26T09:33:49.287Z,96.39
2023-03-26T09:34:49.232Z,94.74
2023-03-26T09:35:49.267Z,94.64
2023-03-26T09:36:49.218Z,94.84
2023-03-26T09:37:57.297Z,94.84
2023-03-26T09:38:50.207Z,94.64
2023-03-26T09:39:49.246Z,94.12
2023-03-26T09:40:49.215Z,94.48
2023-03-26T09:41:49.248Z,94.58
2023-03-26T09:42:49.178Z,95.09
2023-03-26T09:43:49.227Z,96.22
2023-03-26T09:44:49.194Z,96.69
2023-03-26T09:45:49.232Z,94.78
2023-03-26T09:46:49.140Z,94.58
2023-03-26T09:47:49.187Z,95.71
2023-03-26T09:48:49.136Z,96.06
2023-03-26T09:49:49.178Z,96.22
2023-03-26T09:50:49.139Z,96.53
2023-03-26T09:51:49.142Z,95.71
2023-03-26T09:52:49.118Z,95.61
2023-03-26T09:53:49.132Z,96.33
2023-03-26T09:54:49.096Z,96.43
2023-03-26T09:55:49.145Z,96.22
2023-03-26T09:56:49.093Z,97.45
2023-03-26T09:57:49.124Z,97.31
2023-03-26T09:58:49.056Z,97.20
2023-03-26T09:59:49.081Z,95.83
2023-03-26T10:00:49.115Z,95.56
2023-03-26T10:01:49.060Z,96.23
2023-03-26T10:02:49.050Z,95.31
2023-03-26T10:03:49.061Z,95.10
2023-03-26T10:04:49.111Z,93.87
2023-03-26T10:05:49.027Z,93.40
2023-03-26T10:06:49.055Z,95.50
2023-03-26T10:07:49.048Z,96.64
2023-03-26T10:08:49.020Z,94.99
2023-03-26T10:09:49.001Z,96.69
2023-03-26T10:10:49.016Z,95.97
2023-03-26T10:11:48.993Z,96.18
2023-03-26T10:12:48.967Z,97.25
2023-03-26T10:13:49.002Z,96.73
2023-03-26T10:14:48.956Z,96.53
2023-03-26T10:15:48.984Z,96.33
2023-03-26T10:16:49.006Z,96.73
2023-03-26T10:17:49.032Z,96.22
2023-03-26T10:18:48.952Z,95.96
2023-03-26T10:19:48.940Z,96.17
2023-03-26T10:20:48.925Z,96.37
2023-03-26T10:21:48.951Z,96.89
2023-03-26T10:22:48.915Z,96.68
2023-03-26T10:23:48.937Z,97.24
2023-03-26T10:24:48.889Z,96.11
2023-03-26T10:25:48.929Z,96.42
2023-03-26T10:27:09.700Z,95.59
2023-03-26T10:27:49.902Z,96.21
2023-03-26T10:28:48.871Z,96.97
2023-03-26T10:29:48.894Z,96.52
2023-03-26T10:30:48.904Z,97.24
2023-03-26T10:31:48.853Z,97.65
2023-03-26T10:32:48.913Z,98.16
2023-03-26T10:33:48.869Z,97.86
2023-03-26T10:34:48.834Z,96.68
2023-03-26T10:35:48.905Z,96.93
2023-03-26T10:36:48.793Z,95.86
2023-03-26T10:37:48.811Z,96.21
2023-03-26T10:38:48.780Z,96.58
2023-03-26T10:39:48.823Z,96.06
2023-03-26T10:40:48.777Z,95.65
2023-03-26T10:41:48.805Z,95.45
2023-03-26T10:42:48.764Z,95.86
2023-03-26T10:43:57.843Z,96.68
2023-03-26T10:44:49.789Z,96.37
2023-03-26T10:45:48.794Z,96.47
2023-03-26T10:46:48.744Z,96.47
2023-03-26T10:47:48.771Z,96.99
2023-03-26T10:48:48.716Z,97.81
2023-03-26T10:49:48.745Z,97.61
2023-03-26T10:50:48.732Z,98.12
2023-03-26T10:51:48.726Z,96.68
2023-03-26T10:52:48.720Z,98.12
2023-03-26T10:53:48.734Z,96.06
2023-03-26T10:54:48.684Z,97.40
2023-03-26T10:55:48.692Z,98.02
2023-03-26T10:56:48.693Z,97.34
2023-03-26T10:57:48.672Z,97.96
2023-03-26T10:58:50.062Z,96.52
2023-03-26T10:59:48.676Z,98.47
2023-03-26T11:00:48.640Z,99.24
2023-03-26T11:01:48.769Z,98.93
2023-03-26T11:02:48.710Z,99.99
2023-03-26T11:03:48.649Z,99.70
2023-03-26T11:04:48.642Z,99.18
2023-03-26T11:05:48.677Z,99.64
2023-03-26T11:06:48.632Z,98.41
2023-03-26T11:07:48.636Z,99.02
2023-03-26T11:08:48.586Z,98.50
2023-03-26T11:09:48.583Z,96.96
2023-03-26T11:10:48.581Z,96.66
2023-03-26T11:11:48.621Z,98.24
2023-03-26T11:12:48.581Z,97.01
2023-03-26T11:13:48.599Z,96.08
2023-03-26T11:14:48.556Z,96.70
2023-03-26T11:15:48.564Z,97.05
2023-03-26T11:16:48.549Z,97.26
2023-03-26T11:17:48.564Z,98.08
2023-03-26T11:18:48.565Z,98.86
2023-03-26T11:19:48.542Z,98.19
2023-03-26T11:20:48.505Z,98.19
2023-03-26T11:21:48.518Z,98.60
2023-03-26T11:22:48.496Z,99.11
2023-03-26T11:23:48.523Z,98.70
2023-03-26T11:24:49.501Z,98.44
2023-03-26T11:25:48.504Z,99.84
2023-03-26T11:26:48.468Z,99.99
2023-03-26T11:27:48.486Z,99.84
2023-03-26T11:29:03.278Z,99.84
2023-03-26T11:29:49.467Z,99.99
2023-03-26T11:30:48.465Z,99.99
2023-03-26T11:31:48.526Z,99.99
2023-03-26T11:32:48.538Z,99.94
2023-03-26T11:33:48.442Z,99.99
2023-03-26T11:34:48.430Z,99.73
2023-03-26T11:35:48.477Z,99.99
2023-03-26T11:36:48.439Z,98.50
2023-03-26T11:37:48.449Z,98.70
2023-03-26T11:38:55.405Z,99.79
2023-03-26T11:39:48.409Z,99.17
2023-03-26T11:40:48.376Z,98.45
2023-03-26T11:41:48.401Z,99.27
2023-03-26T11:42:48.377Z,99.27
2023-03-26T11:43:48.414Z,99.58
2023-03-26T11:44:48.355Z,99.02
2023-03-26T11:45:48.399Z,98.66
2023-03-26T11:46:48.382Z,98.97
2023-03-26T11:47:48.370Z,98.55
2023-03-26T11:48:48.339Z,98.10
2023-03-26T11:49:48.349Z,98.97
2023-03-26T11:50:48.321Z,98.41
2023-03-26T11:51:48.338Z,97.94
2023-03-26T11:52:48.308Z,98.35
2023-03-26T11:53:48.322Z,98.24
2023-03-26T11:54:48.280Z,98.24
2023-03-26T11:55:48.331Z,99.07
2023-03-26T11:57:04.905Z,98.97
2023-03-26T11:57:49.280Z,98.35
2023-03-26T11:58:48.256Z,98.35
2023-03-26T11:59:56.439Z,98.55
2023-03-26T12:00:49.253Z,97.52
2023-03-26T12:01:48.298Z,98.03
2023-03-26T12:02:48.279Z,98.14
2023-03-26T12:03:48.258Z,98.35
2023-03-26T12:04:48.255Z,98.24
2023-03-26T12:05:48.223Z,98.03
2023-03-26T12:06:48.255Z,98.55
2023-03-26T12:07:48.231Z,98.76
2023-03-26T12:08:48.169Z,98.03
2023-03-26T12:09:48.188Z,99.07
2023-03-26T12:10:48.160Z,98.10
2023-03-26T12:11:48.186Z,97.48
2023-03-26T12:12:48.185Z,98.20
2023-03-26T12:13:48.227Z,95.48
2023-03-26T12:14:48.145Z,96.46
2023-03-26T12:15:48.175Z,97.13
2023-03-26T12:16:48.152Z,96.41
2023-03-26T12:17:48.227Z,95.68
2023-03-26T12:18:48.122Z,96.66
2023-03-26T12:19:48.126Z,97.48
2023-03-26T12:20:48.134Z,98.77
2023-03-26T12:21:48.138Z,98.41
2023-03-26T12:22:48.109Z,98.10
2023-03-26T12:23:48.148Z,98.14
2023-03-26T12:24:48.068Z,98.86
2023-03-26T12:25:48.084Z,99.99
2023-03-26T12:26:48.049Z,98.91
2023-03-26T12:27:48.065Z,99.17
2023-03-26T12:28:48.066Z,99.99
2023-03-26T12:29:48.067Z,99.99
2023-03-26T12:30:48.037Z,99.58
2023-03-26T12:31:48.042Z,98.86
2023-03-26T12:32:48.055Z,99.07
2023-03-26T12:33:49.058Z,98.61
2023-03-26T12:34:47.995Z,99.17
2023-03-26T12:35:48.122Z,98.92
2023-03-26T12:36:47.987Z,98.66
2023-03-26T12:37:47.995Z,99.27
2023-03-26T12:39:42.894Z,98.86
2023-03-26T12:40:10.275Z,99.27
2023-03-26T12:40:48.993Z,99.27
2023-03-26T12:44:44.187Z,98.97
2023-03-26T12:44:44.826Z,98.82
2023-03-26T12:44:52.618Z,98.03
2023-03-26T12:44:59.112Z,99.43
2023-03-26T12:45:48.009Z,99.02
2023-03-26T12:47:57.979Z,99.64
2023-03-26T12:48:02.290Z,98.82
2023-03-26T12:48:49.032Z,98.61
2023-03-26T12:49:47.945Z,98.57
2023-03-26T12:50:47.895Z,97.95
2023-03-26T12:51:47.930Z,98.25
2023-03-26T12:52:47.873Z,97.99